Snoqualmie River: North Fork station

back to: Snoqualmie river
North Fork station Summary - (NOAA Hydrograph: SNQW1)
Latest reading:
Mon08/19 11:15 am 1.89 ft 61 cfs (steady)
Past 24hr max:
Sun08/18 11:15 am 1.91 ft 64 cfs
Forecasted crests: (published Mon 08/19/19 08:57 am)
Thu08/22 05:00 am 2.34 ft 129 cfs

North Fork station Details

Latest Readings

Last 100 Readings:
Mon08/19 11:15 am 1.89 ft 61 cfs
Mon08/19 11:00 am 1.89 ft 61 cfs
Mon08/19 10:45 am 1.89 ft 61 cfs
Mon08/19 10:30 am 1.89 ft 61 cfs
Mon08/19 10:15 am 1.88 ft 60 cfs
Mon08/19 10:00 am 1.89 ft 61 cfs
Mon08/19 09:45 am 1.89 ft 61 cfs
Mon08/19 09:30 am 1.89 ft 61 cfs
Mon08/19 09:15 am 1.89 ft 61 cfs
Mon08/19 09:00 am 1.89 ft 61 cfs
Mon08/19 08:45 am 1.89 ft 61 cfs
Mon08/19 08:30 am 1.89 ft 61 cfs
Mon08/19 08:15 am 1.89 ft 61 cfs
Mon08/19 08:00 am 1.88 ft 60 cfs
Mon08/19 07:45 am 1.89 ft 61 cfs
Mon08/19 07:30 am 1.88 ft 60 cfs
Mon08/19 07:15 am 1.89 ft 61 cfs
Mon08/19 07:00 am 1.89 ft 61 cfs
Mon08/19 06:45 am 1.89 ft 61 cfs
Mon08/19 06:30 am 1.89 ft 61 cfs
Mon08/19 06:15 am 1.89 ft 61 cfs
Mon08/19 06:00 am 1.89 ft 61 cfs
Mon08/19 05:45 am 1.89 ft 61 cfs
Mon08/19 05:30 am 1.89 ft 61 cfs
Mon08/19 05:15 am 1.89 ft 61 cfs
Mon08/19 05:00 am 1.89 ft 61 cfs
Mon08/19 04:45 am 1.89 ft 61 cfs
Mon08/19 04:30 am 1.89 ft 61 cfs
Mon08/19 04:15 am 1.89 ft 61 cfs
Mon08/19 04:00 am 1.89 ft 61 cfs
Mon08/19 03:45 am 1.89 ft 61 cfs
Mon08/19 03:30 am 1.89 ft 61 cfs
Mon08/19 03:15 am 1.89 ft 61 cfs
Mon08/19 03:00 am 1.89 ft 61 cfs
Mon08/19 02:45 am 1.89 ft 61 cfs
Mon08/19 02:30 am 1.89 ft 61 cfs
Mon08/19 02:15 am 1.89 ft 61 cfs
Mon08/19 02:00 am 1.9 ft 63 cfs
Mon08/19 01:45 am 1.9 ft 63 cfs
Mon08/19 01:30 am 1.89 ft 61 cfs
Mon08/19 01:15 am 1.89 ft 61 cfs
Mon08/19 01:00 am 1.89 ft 61 cfs
Mon08/19 12:45 am 1.89 ft 61 cfs
Mon08/19 12:30 am 1.89 ft 61 cfs
Mon08/19 12:15 am 1.9 ft 63 cfs
Mon08/19 12:00 am 1.89 ft 61 cfs
Sun08/18 11:45 pm 1.89 ft 61 cfs
Sun08/18 11:30 pm 1.89 ft 61 cfs
Sun08/18 11:15 pm 1.9 ft 63 cfs
Sun08/18 11:00 pm 1.89 ft 61 cfs
Sun08/18 10:45 pm 1.9 ft 63 cfs
Sun08/18 10:30 pm 1.89 ft 61 cfs
Sun08/18 10:15 pm 1.9 ft 63 cfs
Sun08/18 10:00 pm 1.9 ft 63 cfs
Sun08/18 09:45 pm 1.9 ft 63 cfs
Sun08/18 09:30 pm 1.9 ft 63 cfs
Sun08/18 09:15 pm 1.9 ft 63 cfs
Sun08/18 09:00 pm 1.9 ft 63 cfs
Sun08/18 08:45 pm 1.9 ft 63 cfs
Sun08/18 08:30 pm 1.9 ft 63 cfs
Sun08/18 08:15 pm 1.9 ft 63 cfs
Sun08/18 08:00 pm 1.9 ft 63 cfs
Sun08/18 07:45 pm 1.9 ft 63 cfs
Sun08/18 07:30 pm 1.9 ft 63 cfs
Sun08/18 07:15 pm 1.9 ft 63 cfs
Sun08/18 07:00 pm 1.9 ft 63 cfs
Sun08/18 06:45 pm 1.9 ft 63 cfs
Sun08/18 06:30 pm 1.9 ft 63 cfs
Sun08/18 06:15 pm 1.9 ft 63 cfs
Sun08/18 06:00 pm 1.9 ft 63 cfs
Sun08/18 05:45 pm 1.9 ft 63 cfs
Sun08/18 05:30 pm 1.9 ft 63 cfs
Sun08/18 05:15 pm 1.9 ft 63 cfs
Sun08/18 05:00 pm 1.91 ft 64 cfs
Sun08/18 04:45 pm 1.9 ft 63 cfs
Sun08/18 04:30 pm 1.91 ft 64 cfs
Sun08/18 04:15 pm 1.91 ft 64 cfs
Sun08/18 04:00 pm 1.91 ft 64 cfs
Sun08/18 03:45 pm 1.91 ft 64 cfs
Sun08/18 03:30 pm 1.91 ft 64 cfs
Sun08/18 03:15 pm 1.91 ft 64 cfs
Sun08/18 03:00 pm 1.91 ft 64 cfs
Sun08/18 02:45 pm 1.91 ft 64 cfs
Sun08/18 02:30 pm 1.91 ft 64 cfs
Sun08/18 02:15 pm 1.91 ft 64 cfs
Sun08/18 02:00 pm 1.91 ft 64 cfs
Sun08/18 01:45 pm 1.91 ft 64 cfs
Sun08/18 01:30 pm 1.91 ft 64 cfs
Sun08/18 01:15 pm 1.91 ft 64 cfs
Sun08/18 01:00 pm 1.91 ft 64 cfs
Sun08/18 12:45 pm 1.91 ft 64 cfs
Sun08/18 12:30 pm 1.91 ft 64 cfs
Sun08/18 12:15 pm 1.91 ft 64 cfs
Sun08/18 12:00 pm 1.91 ft 64 cfs
Sun08/18 11:45 am 1.91 ft 64 cfs
Sun08/18 11:30 am 1.91 ft 64 cfs
Sun08/18 11:15 am 1.91 ft 64 cfs
Sun08/18 11:00 am 1.91 ft 64 cfs
Sun08/18 10:45 am 1.91 ft 64 cfs
Sun08/18 10:30 am 1.91 ft 64 cfs

Latest Forecasts

Currently Forecasted Readings:
Mon08/19 11:00 am 1.88 ft 61 cfs
Mon08/19 05:00 pm 1.88 ft 60 cfs
Mon08/19 11:00 pm 1.87 ft 59 cfs
Tue08/20 05:00 am 1.86 ft 58 cfs
Tue08/20 11:00 am 1.86 ft 57 cfs
Tue08/20 05:00 pm 1.85 ft 56 cfs
Tue08/20 11:00 pm 1.84 ft 56 cfs
Wed08/21 05:00 am 1.84 ft 56 cfs
Wed08/21 11:00 am 1.84 ft 55 cfs
Wed08/21 05:00 pm 1.94 ft 68 cfs
Wed08/21 11:00 pm 2.28 ft 118 cfs
Thu08/22 05:00 am 2.34 ft 129 cfs
Thu08/22 11:00 am 2.24 ft 111 cfs
Thu08/22 05:00 pm 2.06 ft 84 cfs
Thu08/22 11:00 pm 2.0 ft 75 cfs
Fri08/23 05:00 am 1.98 ft 73 cfs
Fri08/23 11:00 am 1.97 ft 71 cfs
Fri08/23 05:00 pm 1.95 ft 69 cfs
Fri08/23 11:00 pm 1.94 ft 67 cfs
Sat08/24 05:00 am 1.93 ft 66 cfs
Sat08/24 11:00 am 1.92 ft 64 cfs
Sat08/24 05:00 pm 1.9 ft 63 cfs
Sat08/24 11:00 pm 1.89 ft 61 cfs
Sun08/25 05:00 am 1.88 ft 60 cfs
Sun08/25 11:00 am 1.87 ft 59 cfs
Sun08/25 05:00 pm 1.86 ft 58 cfs
Sun08/25 11:00 pm 1.85 ft 57 cfs
Mon08/26 05:00 am 1.84 ft 56 cfs
Mon08/26 11:00 am 1.83 ft 55 cfs
Mon08/26 05:00 pm 1.82 ft 54 cfs
Mon08/26 11:00 pm 1.82 ft 53 cfs
Tue08/27 05:00 am 1.81 ft 53 cfs
Tue08/27 11:00 am 1.81 ft 52 cfs
Tue08/27 05:00 pm 1.8 ft 51 cfs
Tue08/27 11:00 pm 1.8 ft 51 cfs
Wed08/28 05:00 am 1.79 ft 51 cfs
Wed08/28 11:00 am 1.79 ft 50 cfs
Wed08/28 05:00 pm 1.78 ft 49 cfs
Wed08/28 11:00 pm 1.78 ft 49 cfs
Thu08/29 05:00 am 1.77 ft 49 cfs

Snoqualmie River flood gauge data supplied by the
National Weather Service Northwest River Forecast Center.

Sign up for Floodzilla alerts.